Time;durP1;ratioP1;P1;durP2;ratioP2;P2;SDS_P1;SDS_P2;PMS_P1;PMS_P2;Temp;Humidity;BMP_temperature;BMP_pressure;BME280_temperature;BME280_humidity;BME280_pressure;Samples;Min_cycle;Max_cycle;Signal;HPM_P1;HPM_P2
2023/04/10 00:02:16;;;;;;;5.27;4.40;;;3.00;99.90;;;;;;5036844;28;21046;-52
2023/04/10 00:04:43;;;;;;;4.23;3.30;;;3.30;99.90;;;;;;5036534;28;20472;-50
2023/04/10 00:07:10;;;;;;;5.77;3.77;;;3.40;99.90;;;;;;5037059;28;20866;-51
2023/04/10 00:09:37;;;;;;;5.20;4.10;;;3.40;99.90;;;;;;5037127;28;20447;-50
2023/04/10 00:12:05;;;;;;;7.97;6.07;;;3.30;99.90;;;;;;5036584;28;20502;-51
2023/04/10 00:14:33;;;;;;;9.13;6.10;;;3.30;99.90;;;;;;5036334;28;20571;-50
2023/04/10 00:17:00;;;;;;;5.30;4.27;;;3.30;99.90;;;;;;5033956;28;20485;-50
2023/04/10 00:19:27;;;;;;;7.93;5.20;;;2.80;99.90;;;;;;5032190;28;20525;-50
2023/04/10 00:21:55;;;;;;;6.60;4.83;;;2.30;99.90;;;;;;5032445;28;21018;-50
2023/04/10 00:24:22;;;;;;;5.53;4.83;;;2.30;99.90;;;;;;5034161;28;20535;-50
2023/04/10 00:26:49;;;;;;;7.13;4.40;;;2.70;99.90;;;;;;5034966;28;20484;-51
2023/04/10 00:29:15;;;;;;;8.00;4.67;;;2.80;99.90;;;;;;5035376;28;20443;-50
2023/04/10 00:31:44;;;;;;;8.50;5.20;;;2.70;99.90;;;;;;5035706;28;20501;-50
2023/04/10 00:34:12;;;;;;;5.10;3.97;;;2.60;99.90;;;;;;5036275;28;21024;-50
2023/04/10 00:36:39;;;;;;;7.30;4.40;;;2.80;99.90;;;;;;5034951;28;20533;-50
2023/04/10 00:39:07;;;;;;;5.20;4.50;;;2.90;99.90;;;;;;5035595;28;20472;-50
2023/04/10 00:41:34;;;;;;;7.20;4.10;;;3.10;99.90;;;;;;5035715;28;20445;-51
2023/04/10 00:44:01;;;;;;;7.20;4.80;;;3.10;99.90;;;;;;5036161;28;20449;-50
2023/04/10 00:46:30;;;;;;;8.47;6.27;;;3.00;99.90;;;;;;5036512;28;20448;-51
2023/04/10 00:48:59;;;;;;;7.63;6.30;;;3.00;99.90;;;;;;5036364;28;20470;-50
2023/04/10 00:51:26;;;;;;;6.93;6.23;;;2.80;99.90;;;;;;5035461;28;21001;-50
2023/04/10 00:53:54;;;;;;;8.40;6.43;;;2.50;99.90;;;;;;5034979;28;20448;-50
2023/04/10 00:56:23;;;;;;;5.37;4.67;;;2.10;99.90;;;;;;5035332;28;20458;-51
2023/04/10 00:58:50;;;;;;;4.70;4.20;;;2.30;99.90;;;;;;5035962;28;20874;-50
2023/04/10 01:01:17;;;;;;;5.53;4.90;;;2.40;99.90;;;;;;5035358;28;20921;-50
2023/04/10 01:03:45;;;;;;;17.50;10.17;;;2.70;99.90;;;;;;5035785;28;20471;-51
2023/04/10 01:06:26;;;;;;;13.00;6.47;;;2.80;99.90;;;;;;5035621;28;20520;-51
2023/04/10 01:09:00;;;;;;;7.27;4.80;;;2.80;99.90;;;;;;5035776;28;20478;-51
2023/04/10 01:11:35;;;;;;;8.93;5.90;;;3.00;99.90;;;;;;5035691;28;20443;-52
2023/04/10 01:14:09;;;;;;;5.53;4.27;;;3.20;99.90;;;;;;5035941;28;20473;-51
2023/04/10 01:16:43;;;;;;;6.80;5.47;;;3.20;99.90;;;;;;5035594;28;20439;-50
2023/04/10 01:19:21;;;;;;;8.50;5.20;;;3.10;99.90;;;;;;5035439;28;20478;-51
2023/04/10 01:21:51;;;;;;;6.90;6.20;;;2.50;99.90;;;;;;5035366;28;20494;-51
2023/04/10 01:24:38;;;;;;;7.40;3.83;;;2.20;99.90;;;;;;5035133;28;20485;-51
2023/04/10 01:27:20;;;;;;;5.40;4.37;;;2.10;99.90;;;;;;5034910;28;20500;-51
2023/04/10 01:29:56;;;;;;;5.40;3.57;;;2.20;99.90;;;;;;5033611;28;20514;-50
2023/04/10 01:32:24;;;;;;;5.13;3.60;;;2.40;99.90;;;;;;5030541;28;21020;-50
2023/04/10 01:34:54;;;;;;;4.97;3.40;;;2.60;99.90;;;;;;5037807;28;20478;-51
2023/04/10 01:37:28;;;;;;;6.30;4.37;;;2.60;99.90;;;;;;5044076;28;20435;-51
2023/04/10 01:39:59;;;;;;;6.73;4.53;;;2.70;99.90;;;;;;5037689;28;20528;-52
2023/04/10 01:42:27;;;;;;;6.23;3.83;;;2.60;99.90;;;;;;5034770;28;20474;-51
2023/04/10 01:44:57;;;;;;;5.87;3.97;;;2.70;99.90;;;;;;5034194;28;20470;-50
2023/04/10 01:47:26;;;;;;;7.20;4.23;;;2.60;99.90;;;;;;5033112;28;20543;-50
2023/04/10 01:49:54;;;;;;;4.47;3.33;;;2.50;99.90;;;;;;5032301;28;20491;-53
2023/04/10 01:52:23;;;;;;;8.10;5.20;;;2.60;99.90;;;;;;5041482;28;21013;-52
2023/04/10 01:54:52;;;;;;;8.87;5.10;;;2.20;99.90;;;;;;5041964;28;20517;-50
2023/04/10 01:57:19;;;;;;;7.93;5.97;;;2.50;99.90;;;;;;5043494;28;20432;-51
2023/04/10 01:59:46;;;;;;;6.63;5.40;;;2.50;99.90;;;;;;5041830;28;20466;-51
2023/04/10 02:02:14;;;;;;;5.57;3.77;;;2.50;99.90;;;;;;5042912;28;20549;-51
2023/04/10 02:04:41;;;;;;;5.90;4.07;;;2.10;99.90;;;;;;5039650;28;20466;-51
2023/04/10 02:07:12;;;;;;;4.30;3.40;;;2.10;99.90;;;;;;5043837;28;20467;-51
2023/04/10 02:09:47;;;;;;;4.97;3.27;;;1.90;99.90;;;;;;5042643;28;20443;-51
2023/04/10 02:12:18;;;;;;;6.30;3.90;;;1.60;99.90;;;;;;5043687;28;20768;-51
2023/04/10 02:14:47;;;;;;;4.70;3.93;;;1.60;99.90;;;;;;5039431;28;20470;-50
2023/04/10 02:17:20;;;;;;;4.80;3.60;;;1.80;99.90;;;;;;5042930;28;20509;-51
2023/04/10 02:19:51;;;;;;;3.97;3.53;;;2.00;99.90;;;;;;5039577;28;21030;-52
2023/04/10 02:22:18;;;;;;;3.97;3.57;;;2.10;99.90;;;;;;5042845;28;20458;-52
2023/04/10 02:24:45;;;;;;;6.27;4.23;;;2.40;99.90;;;;;;5041146;28;20899;-52
2023/04/10 02:27:12;;;;;;;5.17;3.73;;;2.50;99.90;;;;;;5041510;28;20446;-51
2023/04/10 02:29:39;;;;;;;6.87;4.90;;;2.50;99.90;;;;;;5042883;28;20477;-51
2023/04/10 02:32:07;;;;;;;4.57;3.53;;;2.50;99.90;;;;;;5041997;28;20547;-50
2023/04/10 02:34:35;;;;;;;5.20;4.70;;;2.40;99.90;;;;;;5041745;28;20793;-51
2023/04/10 02:37:02;;;;;;;5.43;4.00;;;2.10;99.90;;;;;;5040183;28;20496;-52
2023/04/10 02:39:28;;;;;;;4.20;3.80;;;1.80;99.90;;;;;;5042824;28;20875;-51
2023/04/10 02:41:55;;;;;;;6.43;3.70;;;1.70;99.90;;;;;;5044054;28;20490;-51
2023/04/10 02:44:22;;;;;;;6.20;3.37;;;1.90;99.90;;;;;;5039943;28;20542;-51
2023/04/10 02:46:49;;;;;;;4.13;3.77;;;2.00;99.90;;;;;;5043479;28;20754;-50
2023/04/10 02:49:16;;;;;;;4.80;3.53;;;2.20;99.90;;;;;;5044030;28;20467;-51
2023/04/10 02:51:44;;;;;;;5.00;3.67;;;2.10;99.90;;;;;;5039106;28;20964;-50
2023/04/10 02:54:11;;;;;;;5.53;3.70;;;2.10;99.90;;;;;;5042633;28;20470;-50
2023/04/10 02:56:38;;;;;;;3.60;3.20;;;2.20;99.90;;;;;;5044461;28;20510;-50
2023/04/10 02:59:05;;;;;;;5.17;4.00;;;2.30;99.90;;;;;;5042429;28;20467;-52
2023/04/10 03:01:32;;;;;;;5.70;3.80;;;2.20;99.90;;;;;;5043236;28;20806;-52
2023/04/10 03:03:59;;;;;;;5.10;3.83;;;2.20;99.90;;;;;;5043373;28;20481;-51
2023/04/10 03:06:27;;;;;;;7.53;5.10;;;2.00;99.90;;;;;;5044769;28;20524;-50
2023/04/10 03:08:55;;;;;;;7.60;4.10;;;1.60;99.90;;;;;;5042282;28;20810;-49
2023/04/10 03:11:22;;;;;;;5.47;3.30;;;1.60;99.90;;;;;;5040755;28;20443;-50
2023/04/10 03:13:49;;;;;;;5.73;4.50;;;2.00;99.90;;;;;;5042111;28;20830;-52
2023/04/10 03:16:17;;;;;;;6.13;4.70;;;2.10;99.90;;;;;;5043674;28;21062;-49
2023/04/10 03:18:44;;;;;;;8.17;4.70;;;2.10;99.90;;;;;;5040647;28;20435;-52
2023/04/10 03:21:11;;;;;;;6.40;3.70;;;2.10;99.90;;;;;;5044386;28;20488;-53
2023/04/10 03:23:38;;;;;;;5.93;4.23;;;2.20;99.90;;;;;;5046421;28;21005;-51
2023/04/10 03:26:07;;;;;;;4.43;3.60;;;2.10;99.90;;;;;;5044646;28;20846;-51
2023/04/10 03:28:35;;;;;;;3.80;3.27;;;1.90;99.90;;;;;;5044882;28;20442;-53
2023/04/10 03:31:03;;;;;;;4.13;3.30;;;2.10;99.90;;;;;;5047160;28;20532;-51
2023/04/10 03:33:30;;;;;;;5.43;3.70;;;2.10;99.90;;;;;;5045637;28;21177;-52
2023/04/10 03:35:57;;;;;;;4.90;3.87;;;2.20;99.90;;;;;;5044208;28;20908;-50
2023/04/10 03:38:24;;;;;;;6.37;3.50;;;2.60;99.90;;;;;;5042265;28;20442;-52
2023/04/10 03:40:52;;;;;;;4.40;3.17;;;2.40;99.90;;;;;;5044214;28;20529;-51
2023/04/10 03:43:20;;;;;;;3.47;3.10;;;2.50;99.90;;;;;;5046652;28;20464;-51
2023/04/10 03:45:47;;;;;;;4.10;3.17;;;2.20;99.90;;;;;;5044841;28;20443;-50
2023/04/10 03:48:15;;;;;;;4.80;3.90;;;1.80;99.90;;;;;;5044660;28;20999;-51
2023/04/10 03:50:42;;;;;;;5.73;3.73;;;1.70;99.90;;;;;;5045092;28;20442;-51
2023/04/10 03:53:09;;;;;;;4.10;3.00;;;1.60;99.90;;;;;;5045664;28;20493;-52
2023/04/10 03:55:37;;;;;;;5.40;4.10;;;1.60;99.90;;;;;;5046211;28;20482;-51
2023/04/10 03:58:04;;;;;;;4.50;3.57;;;2.00;99.90;;;;;;5041797;28;20502;-50
2023/04/10 04:00:33;;;;;;;4.50;3.70;;;2.10;99.90;;;;;;5044075;28;20543;-54
2023/04/10 04:03:03;;;;;;;4.10;3.70;;;2.20;99.90;;;;;;5044565;28;20529;-50
2023/04/10 04:05:30;;;;;;;4.63;3.20;;;2.10;99.90;;;;;;5045993;28;20495;-50
2023/04/10 04:07:57;;;;;;;4.50;3.50;;;2.10;99.90;;;;;;5046269;28;20980;-51
2023/04/10 04:10:24;;;;;;;4.87;4.10;;;2.20;99.90;;;;;;5042330;28;20471;-50
2023/04/10 04:12:51;;;;;;;5.10;4.03;;;2.20;99.90;;;;;;5044921;28;20787;-51
2023/04/10 04:15:20;;;;;;;6.90;5.23;;;2.30;99.90;;;;;;5042150;28;20844;-51
2023/04/10 04:17:48;;;;;;;5.40;4.50;;;2.30;99.90;;;;;;5042171;28;20439;-50
2023/04/10 04:20:15;;;;;;;5.70;3.40;;;1.80;99.90;;;;;;5045633;28;20530;-50
2023/04/10 04:22:42;;;;;;;4.30;3.80;;;1.80;99.90;;;;;;5043623;28;20495;-51
2023/04/10 04:25:10;;;;;;;5.60;4.10;;;1.80;99.90;;;;;;5045360;28;21012;-51
2023/04/10 04:27:37;;;;;;;5.77;4.13;;;1.80;99.90;;;;;;5046008;28;20795;-51
2023/04/10 04:30:05;;;;;;;5.10;4.20;;;1.60;99.90;;;;;;5041688;28;20471;-50
2023/04/10 04:32:32;;;;;;;5.13;4.37;;;1.80;99.90;;;;;;5045166;28;20458;-52
2023/04/10 04:35:01;;;;;;;4.73;4.00;;;1.90;99.90;;;;;;5044787;28;20445;-52
2023/04/10 04:37:27;;;;;;;6.17;4.50;;;2.10;99.90;;;;;;5043603;28;20518;-50
2023/04/10 04:39:54;;;;;;;4.70;3.23;;;2.20;99.90;;;;;;5044446;28;21114;-51
2023/04/10 04:42:21;;;;;;;4.37;3.37;;;2.10;99.90;;;;;;5045467;28;20524;-51
2023/04/10 04:44:49;;;;;;;5.57;3.77;;;2.10;99.90;;;;;;5044764;28;20526;-51
2023/04/10 04:47:16;;;;;;;5.70;4.40;;;2.10;99.90;;;;;;5045119;28;20442;-50
2023/04/10 04:49:43;;;;;;;6.03;4.03;;;2.10;99.90;;;;;;5043506;28;20448;-51
2023/04/10 04:52:12;;;;;;;4.60;3.00;;;1.60;99.90;;;;;;5039247;28;20463;-51
2023/04/10 04:54:38;;;;;;;4.27;3.00;;;1.50;99.90;;;;;;5035176;28;20497;-50
2023/04/10 04:57:06;;;;;;;4.43;3.43;;;1.50;99.90;;;;;;5034323;28;21059;-53
2023/04/10 04:59:33;;;;;;;4.00;3.30;;;1.60;99.90;;;;;;5034408;28;20522;-50
2023/04/10 05:02:00;;;;;;;4.10;2.97;;;1.70;99.90;;;;;;5035120;28;21000;-49
2023/04/10 05:04:27;;;;;;;4.93;3.50;;;1.50;99.90;;;;;;5035321;28;20498;-50
2023/04/10 05:06:54;;;;;;;4.33;3.30;;;1.50;99.90;;;;;;5035239;28;20439;-53
2023/04/10 05:09:22;;;;;;;4.50;3.10;;;1.50;99.90;;;;;;5035064;28;20455;-50
2023/04/10 05:11:50;;;;;;;4.50;3.10;;;1.70;99.90;;;;;;5034700;28;20464;-51
2023/04/10 05:14:17;;;;;;;4.97;4.17;;;1.70;99.90;;;;;;5034805;28;20864;-51
2023/04/10 05:16:44;;;;;;;9.53;7.17;;;1.80;99.90;;;;;;5035093;28;20562;-51
2023/04/10 05:19:11;;;;;;;6.00;5.30;;;1.80;99.90;;;;;;5034200;28;20449;-53
2023/04/10 05:21:37;;;;;;;8.50;5.23;;;1.70;99.90;;;;;;5033181;28;20530;-51
2023/04/10 05:24:05;;;;;;;6.83;4.30;;;1.50;99.90;;;;;;5034838;28;20958;-50
2023/04/10 05:26:33;;;;;;;6.00;4.10;;;1.40;99.90;;;;;;5035232;28;20856;-50
2023/04/10 05:29:00;;;;;;;6.40;4.40;;;1.50;99.90;;;;;;5017441;28;21009;-50
2023/04/10 05:31:27;;;;;;;6.60;4.57;;;1.40;99.90;;;;;;5023631;28;20471;-50
2023/04/10 05:33:53;;;;;;;5.80;3.57;;;1.20;99.90;;;;;;5035400;28;20903;-50
2023/04/10 05:36:20;;;;;;;6.00;4.10;;;1.10;99.90;;;;;;5034585;28;20544;-49
2023/04/10 05:38:47;;;;;;;5.80;4.07;;;1.00;99.90;;;;;;5034356;28;20446;-53
2023/04/10 05:41:14;;;;;;;10.93;7.23;;;1.30;99.90;;;;;;5033560;28;20482;-50
2023/04/10 05:43:42;;;;;;;9.60;8.60;;;1.50;99.90;;;;;;5033726;28;20502;-51
2023/04/10 05:46:10;;;;;;;11.70;9.57;;;1.80;99.90;;;;;;5033779;28;20465;-51
2023/04/10 05:48:37;;;;;;;11.07;9.70;;;1.90;99.90;;;;;;5034544;28;20948;-52
2023/04/10 05:51:04;;;;;;;8.07;7.20;;;2.10;99.90;;;;;;5033775;28;20446;-52
2023/04/10 05:53:31;;;;;;;8.60;6.87;;;1.90;99.90;;;;;;5033601;28;20877;-51
2023/04/10 05:55:59;;;;;;;8.30;6.03;;;1.80;99.90;;;;;;5033265;28;20508;-51
2023/04/10 05:58:26;;;;;;;6.20;5.50;;;1.60;99.90;;;;;;5033865;28;20449;-50
2023/04/10 06:00:55;;;;;;;4.70;3.83;;;1.50;99.90;;;;;;5031549;28;20532;-51
2023/04/10 06:03:22;;;;;;;5.10;4.30;;;1.60;99.90;;;;;;5031319;28;20479;-50
2023/04/10 06:05:49;;;;;;;4.83;3.37;;;1.90;99.90;;;;;;5031539;28;20478;-50
2023/04/10 06:08:16;;;;;;;4.73;3.23;;;1.90;99.90;;;;;;5032656;28;20443;-50
2023/04/10 06:10:43;;;;;;;6.03;4.53;;;1.70;99.90;;;;;;5032998;28;20512;-51
2023/04/10 06:13:10;;;;;;;6.37;5.33;;;1.60;99.90;;;;;;5033272;28;20494;-50
2023/04/10 06:15:37;;;;;;;6.43;5.40;;;1.60;99.90;;;;;;5033838;28;20451;-52
2023/04/10 06:18:06;;;;;;;7.50;6.20;;;1.80;99.90;;;;;;5033359;28;20474;-50
2023/04/10 06:20:33;;;;;;;8.13;6.30;;;1.70;99.90;;;;;;5033488;28;20524;-50
2023/04/10 06:23:00;;;;;;;5.87;5.13;;;1.80;99.90;;;;;;5033683;28;20910;-53
2023/04/10 06:25:26;;;;;;;6.27;5.40;;;1.90;99.90;;;;;;5033894;28;20538;-51
2023/04/10 06:27:53;;;;;;;6.20;4.90;;;1.90;99.90;;;;;;5033642;28;20511;-51
2023/04/10 06:30:20;;;;;;;5.07;3.77;;;1.90;99.90;;;;;;5033911;28;20478;-51
2023/04/10 06:32:47;;;;;;;4.30;3.90;;;1.80;99.90;;;;;;5033011;28;20490;-50
2023/04/10 06:35:15;;;;;;;3.73;3.23;;;1.80;99.90;;;;;;5034299;28;20475;-53
2023/04/10 06:37:42;;;;;;;5.57;4.23;;;1.80;99.90;;;;;;5032519;28;20568;-53
2023/04/10 06:40:11;;;;;;;6.43;4.77;;;1.80;99.90;;;;;;5037051;28;20872;-51
2023/04/10 06:42:38;;;;;;;5.80;4.90;;;2.00;99.90;;;;;;5037847;28;20459;-51
2023/04/10 06:45:06;;;;;;;4.93;4.43;;;1.90;99.90;;;;;;5036256;28;20502;-52
2023/04/10 06:47:33;;;;;;;4.30;3.50;;;1.90;99.90;;;;;;5036778;28;20505;-53
2023/04/10 06:50:00;;;;;;;3.73;3.30;;;1.70;99.90;;;;;;5037998;28;20492;-52
2023/04/10 06:52:28;;;;;;;3.60;2.93;;;1.80;99.90;;;;;;5037517;28;20896;-51
2023/04/10 06:54:55;;;;;;;4.70;3.40;;;1.90;99.90;;;;;;5037302;28;20521;-53
2023/04/10 06:57:22;;;;;;;2.97;2.60;;;2.00;99.90;;;;;;5036952;28;20922;-52
2023/04/10 06:59:49;;;;;;;4.90;3.27;;;1.90;99.90;;;;;;5036851;28;20477;-51
2023/04/10 07:02:16;;;;;;;4.47;3.30;;;1.80;99.90;;;;;;5036849;28;20498;-51
2023/04/10 07:04:43;;;;;;;6.03;4.07;;;1.80;99.90;;;;;;5036333;28;20467;-51
2023/04/10 07:07:12;;;;;;;5.20;4.30;;;1.80;99.90;;;;;;5035786;28;20969;-53
2023/04/10 07:09:40;;;;;;;5.73;4.57;;;1.90;99.90;;;;;;5036499;28;20447;-51
2023/04/10 07:12:07;;;;;;;5.53;4.30;;;2.10;99.90;;;;;;5035317;28;20482;-51
2023/04/10 07:14:34;;;;;;;4.63;4.23;;;1.90;99.90;;;;;;5036777;28;20965;-52
2023/04/10 07:17:01;;;;;;;6.37;4.30;;;1.60;99.90;;;;;;5034599;28;20486;-50
2023/04/10 07:19:28;;;;;;;5.13;3.63;;;1.50;99.90;;;;;;5036111;28;20577;-53
2023/04/10 07:21:55;;;;;;;5.03;3.53;;;1.70;99.90;;;;;;5036965;28;20557;-51
2023/04/10 07:24:22;;;;;;;4.23;3.30;;;1.80;99.90;;;;;;5036962;28;20549;-52
2023/04/10 07:26:50;;;;;;;4.93;3.63;;;2.20;99.90;;;;;;5036380;28;20435;-51
2023/04/10 07:29:17;;;;;;;6.77;6.00;;;2.40;99.90;;;;;;5036943;28;20887;-51
2023/04/10 07:31:44;;;;;;;6.50;5.13;;;2.40;99.90;;;;;;5036698;28;20443;-52
2023/04/10 07:34:12;;;;;;;8.27;6.23;;;2.50;99.90;;;;;;5035600;28;20466;-53
2023/04/10 07:36:39;;;;;;;6.30;5.37;;;2.60;99.90;;;;;;5035636;28;20508;-50
2023/04/10 07:39:06;;;;;;;5.60;4.67;;;2.70;99.90;;;;;;5036470;28;20518;-50
2023/04/10 07:41:34;;;;;;;6.10;4.90;;;2.90;99.90;;;;;;5036106;28;20530;-52
2023/04/10 07:44:02;;;;;;;7.43;6.13;;;3.00;99.90;;;;;;5037132;28;20462;-51
2023/04/10 07:46:29;;;;;;;6.67;6.07;;;3.20;99.90;;;;;;5036506;28;20853;-51
2023/04/10 07:48:56;;;;;;;6.23;4.77;;;3.40;99.90;;;;;;5036439;28;20490;-51
2023/04/10 07:51:26;;;;;;;5.63;4.13;;;3.50;99.90;;;;;;5034896;28;20448;-51
2023/04/10 07:53:53;;;;;;;4.90;4.47;;;3.60;99.90;;;;;;5036215;28;20494;-51
2023/04/10 07:56:21;;;;;;;5.77;5.20;;;3.80;99.90;;;;;;5036077;28;20565;-50
2023/04/10 07:58:49;;;;;;;6.00;5.40;;;3.80;99.90;;;;;;5036251;28;20436;-51
2023/04/10 08:01:17;;;;;;;5.37;4.83;;;4.00;99.90;;;;;;5035745;28;20519;-50
2023/04/10 08:03:46;;;;;;;5.23;4.73;;;4.10;99.90;;;;;;5036113;28;20488;-49
2023/04/10 08:06:13;;;;;;;6.80;5.13;;;4.10;99.90;;;;;;5036679;28;20449;-50
2023/04/10 08:08:41;;;;;;;6.33;4.60;;;4.20;99.90;;;;;;5036836;28;20870;-49
2023/04/10 08:11:21;;;;;;;6.43;4.50;;;4.30;99.90;;;;;;5036271;28;20469;-51
2023/04/10 08:13:50;;;;;;;4.33;3.40;;;4.40;99.90;;;;;;5034924;28;20860;-49
2023/04/10 08:16:19;;;;;;;4.57;3.70;;;4.60;99.90;;;;;;5033046;28;20547;-50
2023/04/10 08:18:46;;;;;;;3.60;2.77;;;4.70;99.90;;;;;;5035828;28;20551;-50
2023/04/10 08:21:13;;;;;;;5.23;3.50;;;4.70;99.90;;;;;;5036008;28;20553;-50
2023/04/10 08:23:40;;;;;;;4.67;3.53;;;4.90;99.90;;;;;;5035264;28;20878;-50
2023/04/10 08:26:07;;;;;;;3.80;3.10;;;5.10;99.90;;;;;;5035021;28;20508;-51
2023/04/10 08:28:35;;;;;;;4.07;3.17;;;5.10;99.90;;;;;;5034819;28;20504;-51
2023/04/10 08:31:02;;;;;;;3.30;3.00;;;5.20;99.90;;;;;;5035270;28;20444;-51
2023/04/10 08:33:30;;;;;;;3.73;3.43;;;5.30;99.90;;;;;;5034114;28;20494;-51
2023/04/10 08:35:57;;;;;;;3.33;2.53;;;5.50;99.90;;;;;;5035206;28;20946;-51
2023/04/10 08:38:26;;;;;;;5.50;3.03;;;5.50;99.90;;;;;;5048900;23;20525;-55
2023/04/10 08:40:53;;;;;;;3.73;2.90;;;5.50;99.90;;;;;;5011063;28;20490;-54
2023/04/10 08:43:20;;;;;;;3.33;2.47;;;5.60;99.90;;;;;;5011569;28;20527;-55
2023/04/10 08:45:48;;;;;;;3.70;2.53;;;5.70;99.90;;;;;;5011179;28;20518;-54
2023/04/10 08:48:18;;;;;;;2.63;2.20;;;5.90;99.90;;;;;;5011881;28;20447;-54
2023/04/10 08:50:47;;;;;;;4.03;2.60;;;6.20;99.90;;;;;;5012482;28;20543;-54
2023/04/10 08:53:15;;;;;;;2.87;2.57;;;6.20;99.90;;;;;;5012001;28;20590;-54
2023/04/10 08:55:44;;;;;;;3.83;3.40;;;6.30;99.90;;;;;;5011327;28;20501;-54
2023/04/10 08:58:12;;;;;;;2.90;2.33;;;6.50;99.90;;;;;;5008774;28;20566;-54
2023/04/10 09:00:39;;;;;;;3.60;2.80;;;6.60;99.90;;;;;;4994261;28;20902;-54
2023/04/10 09:03:10;;;;;;;2.63;2.43;;;6.70;99.90;;;;;;5011020;28;20519;-54
2023/04/10 09:05:37;;;;;;;3.37;2.63;;;6.80;99.90;;;;;;5011657;28;20444;-56
2023/04/10 09:08:07;;;;;;;3.33;2.90;;;6.90;99.90;;;;;;5011928;28;20517;-54
2023/04/10 09:10:34;;;;;;;4.10;2.93;;;7.00;99.90;;;;;;5012278;28;20526;-55
2023/04/10 09:13:01;;;;;;;3.30;2.53;;;7.10;99.90;;;;;;5011824;28;20538;-54
2023/04/10 09:15:28;;;;;;;3.53;2.93;;;7.20;99.90;;;;;;5011860;28;20533;-54
2023/04/10 09:17:57;;;;;;;3.37;3.07;;;7.30;99.90;;;;;;5011265;28;20985;-54
2023/04/10 09:20:25;;;;;;;3.77;2.70;;;7.40;99.90;;;;;;5005115;28;20534;-54
2023/04/10 09:22:52;;;;;;;3.83;2.83;;;7.40;99.90;;;;;;5005737;28;20538;-54
2023/04/10 09:25:32;;;;;;;3.87;3.57;;;7.60;99.90;;;;;;5008751;28;20526;-54
2023/04/10 09:28:01;;;;;;;5.10;3.53;;;7.60;99.90;;;;;;5008678;28;20474;-54
2023/04/10 09:30:34;;;;;;;3.60;2.63;;;7.70;99.90;;;;;;5009952;28;20919;-54
2023/04/10 09:33:01;;;;;;;3.87;2.50;;;7.90;99.90;;;;;;5008438;28;21306;-56
2023/04/10 09:35:37;;;;;;;3.50;2.10;;;8.10;99.90;;;;;;5013386;28;20534;-53
2023/04/10 09:38:15;;;;;;;2.80;2.60;;;8.10;99.90;;;;;;5007456;28;20482;-53
2023/04/10 09:40:44;;;;;;;2.70;2.33;;;8.20;99.90;;;;;;5008542;28;20454;-53
2023/04/10 09:43:19;;;;;;;3.00;2.20;;;8.20;99.90;;;;;;5008385;28;20475;-53
2023/04/10 09:45:50;;;;;;;3.07;2.13;;;8.30;99.90;;;;;;5007576;28;20542;-54
2023/04/10 09:48:17;;;;;;;3.33;2.20;;;8.40;99.90;;;;;;5008165;28;20631;-55
2023/04/10 09:50:45;;;;;;;2.23;2.03;;;8.40;99.90;;;;;;5008215;28;20526;-53
2023/04/10 09:53:13;;;;;;;3.13;2.80;;;8.50;99.90;;;;;;5008393;28;20890;-54
2023/04/10 09:55:41;;;;;;;3.30;2.67;;;8.60;99.90;;;;;;5008264;28;20525;-54
2023/04/10 09:58:10;;;;;;;3.00;2.73;;;8.60;99.90;;;;;;5008491;28;20565;-53
2023/04/10 10:00:41;;;;;;;4.10;3.17;;;8.70;99.90;;;;;;5023474;28;20454;-54
2023/04/10 10:03:09;;;;;;;2.70;2.30;;;8.90;99.90;;;;;;5026632;28;20541;-55
2023/04/10 10:05:38;;;;;;;2.87;2.40;;;9.00;99.90;;;;;;5026824;28;20450;-54
2023/04/10 10:08:06;;;;;;;3.27;2.83;;;8.90;99.90;;;;;;5025337;28;20858;-53
2023/04/10 10:10:33;;;;;;;2.50;2.27;;;9.00;99.90;;;;;;5007282;28;20846;-54
2023/04/10 10:13:02;;;;;;;2.93;2.60;;;9.00;99.90;;;;;;5007124;28;20472;-53
2023/04/10 10:15:36;;;;;;;2.50;2.30;;;9.10;99.90;;;;;;5010997;28;20447;-54
2023/04/10 10:18:10;;;;;;;2.77;2.20;;;9.50;99.90;;;;;;5011883;28;20490;-54
2023/04/10 10:20:38;;;;;;;3.20;2.53;;;9.60;99.90;;;;;;5011666;28;20451;-54
2023/04/10 10:23:07;;;;;;;2.77;2.00;;;9.40;99.90;;;;;;5011657;28;20451;-53
2023/04/10 10:25:35;;;;;;;3.07;2.37;;;9.60;99.90;;;;;;5011872;28;20490;-54
2023/04/10 10:28:04;;;;;;;2.40;1.93;;;10.10;99.90;;;;;;5011574;28;20923;-54
2023/04/10 10:30:33;;;;;;;2.47;2.10;;;9.90;99.90;;;;;;5012490;28;20531;-54
2023/04/10 10:33:02;;;;;;;2.03;1.80;;;9.70;99.90;;;;;;5025100;28;20450;-54
2023/04/10 10:35:31;;;;;;;2.13;1.93;;;10.10;99.90;;;;;;5031104;28;21019;-54
2023/04/10 10:38:00;;;;;;;2.40;1.87;;;10.10;99.90;;;;;;5030879;28;20490;-54
2023/04/10 10:40:31;;;;;;;2.73;2.03;;;10.30;99.90;;;;;;5031875;28;20474;-54
2023/04/10 10:43:05;;;;;;;2.43;2.07;;;10.30;99.90;;;;;;5021042;28;20534;-54
2023/04/10 10:45:39;;;;;;;3.17;2.27;;;10.10;99.90;;;;;;5011240;28;20480;-55
2023/04/10 10:48:07;;;;;;;2.37;2.03;;;10.10;99.90;;;;;;5011545;28;20533;-54
2023/04/10 10:50:57;;;;;;;2.10;1.90;;;10.10;99.90;;;;;;5011492;28;20973;-54
2023/04/10 10:53:37;;;;;;;1.87;1.50;;;10.20;98.90;;;;;;5011654;28;20453;-55
2023/04/10 10:56:35;;;;;;;1.57;1.37;;;10.30;98.50;;;;;;5011585;28;20459;-53
2023/04/10 10:59:03;;;;;;;2.20;1.67;;;10.60;98.90;;;;;;4992223;28;20493;-55
2023/04/10 11:01:31;;;;;;;3.23;1.53;;;10.60;95.00;;;;;;4991820;28;20451;-54
2023/04/10 11:03:59;;;;;;;1.80;1.57;;;10.90;96.80;;;;;;4991791;28;21168;-54
2023/04/10 11:06:50;;;;;;;1.67;1.47;;;10.80;96.20;;;;;;4991519;28;20465;-54
2023/04/10 11:09:49;;;;;;;1.70;1.50;;;11.00;99.90;;;;;;4991545;28;20508;-54
2023/04/10 11:12:19;;;;;;;2.30;1.70;;;10.80;99.50;;;;;;5008657;28;20508;-54
2023/04/10 11:14:57;;;;;;;1.77;1.50;;;11.00;98.70;;;;;;5031025;28;20931;-54
2023/04/10 11:17:50;;;;;;;2.50;1.90;;;11.30;99.90;;;;;;5030883;28;20598;-54
2023/04/10 11:20:19;;;;;;;1.80;1.33;;;11.20;99.90;;;;;;5014049;28;20458;-54
2023/04/10 11:23:09;;;;;;;2.07;1.80;;;11.00;99.90;;;;;;5015683;28;20572;-54
2023/04/10 11:25:50;;;;;;;2.87;2.03;;;11.00;99.80;;;;;;4991158;28;20448;-54
2023/04/10 11:28:36;;;;;;;3.50;2.77;;;11.20;99.60;;;;;;4990990;28;20984;-54
2023/04/10 11:31:18;;;;;;;2.50;1.67;;;11.70;99.10;;;;;;5008023;28;20491;-54
2023/04/10 11:33:47;;;;;;;1.60;1.37;;;11.60;97.70;;;;;;5019195;28;20510;-55
2023/04/10 11:36:16;;;;;;;2.40;1.67;;;11.50;95.30;;;;;;5011471;28;20958;-54
2023/04/10 11:38:54;;;;;;;2.33;1.57;;;11.60;97.40;;;;;;5009838;28;20917;-54
2023/04/10 11:41:26;;;;;;;2.50;1.87;;;11.70;99.30;;;;;;5010724;28;20442;-54
2023/04/10 11:43:52;;;;;;;2.30;1.63;;;11.60;98.70;;;;;;5010553;28;20457;-54
2023/04/10 11:46:20;;;;;;;2.13;1.70;;;11.90;99.00;;;;;;5010018;28;20481;-54
2023/04/10 11:48:53;;;;;;;2.37;1.80;;;11.70;98.20;;;;;;5010301;28;20495;-54
2023/04/10 11:51:20;;;;;;;2.30;1.73;;;11.90;99.90;;;;;;5007570;28;20458;-54
2023/04/10 11:53:47;;;;;;;3.27;2.13;;;11.80;99.30;;;;;;5009875;28;20500;-55
2023/04/10 11:56:19;;;;;;;1.60;1.50;;;11.90;99.80;;;;;;5010236;28;21025;-54
2023/04/10 11:58:47;;;;;;;2.13;1.50;;;11.90;96.40;;;;;;5010331;28;20500;-55
2023/04/10 12:01:14;;;;;;;2.23;1.87;;;11.60;98.20;;;;;;5010066;28;20540;-54
2023/04/10 12:03:42;;;;;;;1.97;1.77;;;11.70;96.90;;;;;;5009883;28;20510;-54
2023/04/10 12:06:12;;;;;;;1.57;1.17;;;11.80;98.80;;;;;;5010438;28;20450;-54
2023/04/10 12:08:41;;;;;;;1.50;1.30;;;12.10;96.40;;;;;;5015781;28;21168;-56
2023/04/10 12:11:09;;;;;;;2.40;1.60;;;11.90;97.30;;;;;;5029677;28;20447;-55
2023/04/10 12:13:36;;;;;;;1.50;1.17;;;12.00;96.40;;;;;;5012412;28;20455;-54
2023/04/10 12:16:06;;;;;;;2.10;1.27;;;12.20;92.90;;;;;;5009983;28;21058;-54
2023/04/10 12:18:33;;;;;;;1.60;1.33;;;11.90;94.60;;;;;;5010070;28;20580;-54
2023/04/10 12:21:00;;;;;;;1.50;1.10;;;12.20;94.60;;;;;;5009793;28;20533;-55
2023/04/10 12:23:30;;;;;;;1.80;1.50;;;12.40;94.90;;;;;;5017065;28;20613;-54
2023/04/10 12:26:11;;;;;;;2.50;1.57;;;12.50;94.90;;;;;;5029043;28;20516;-55
2023/04/10 12:28:39;;;;;;;1.90;1.30;;;12.70;95.10;;;;;;5029653;28;20492;-54
2023/04/10 12:31:07;;;;;;;1.50;1.10;;;12.50;96.80;;;;;;5029462;28;20479;-54
2023/04/10 12:33:34;;;;;;;2.40;1.40;;;12.50;95.50;;;;;;5029264;28;20453;-54
2023/04/10 12:36:01;;;;;;;1.70;1.20;;;12.60;95.60;;;;;;5028567;28;20881;-54
2023/04/10 12:38:41;;;;;;;2.30;1.60;;;12.60;93.00;;;;;;5017399;28;20522;-54
2023/04/10 12:41:10;;;;;;;1.47;1.13;;;12.80;95.40;;;;;;5009329;28;20534;-54
2023/04/10 12:43:38;;;;;;;2.23;1.50;;;12.70;96.10;;;;;;5024775;28;20453;-54
2023/04/10 12:46:06;;;;;;;2.73;1.87;;;12.80;96.30;;;;;;5028918;28;20528;-54
2023/04/10 12:48:33;;;;;;;3.77;1.93;;;12.90;95.70;;;;;;5028966;28;20909;-54
2023/04/10 12:51:00;;;;;;;1.63;1.37;;;12.80;97.00;;;;;;5015074;28;20485;-55
2023/04/10 12:53:28;;;;;;;2.10;1.20;;;12.50;95.20;;;;;;5009585;28;20860;-54
2023/04/10 12:56:01;;;;;;;2.30;1.47;;;12.80;93.80;;;;;;5009344;28;20550;-54
2023/04/10 12:58:30;;;;;;;1.77;1.43;;;12.70;95.30;;;;;;5024788;28;21345;-55
2023/04/10 13:00:58;;;;;;;1.90;1.60;;;13.20;93.90;;;;;;5028769;28;20447;-54
2023/04/10 13:03:25;;;;;;;2.20;1.40;;;13.20;92.70;;;;;;5028599;28;20507;-54
2023/04/10 13:05:53;;;;;;;1.87;1.60;;;12.90;93.70;;;;;;5027620;28;20532;-55